CRM4 weather

Cormier Airport
Cormier, New Brunswick, Canada

Public forecast

Using degrees Celsius for public forecast. Weather courtesy of forecast.io.

Closest aviation weather report (METAR) to Cormier Airport

Closest report is Greater Moncton Roméo LeBlanc International Airport, 13.3 nm (24.5 km) WSW. Retrieved 2020/06/02 14:00 UTC (15 minutes ago):

CYQM 021400Z 27010KT 240V300 15SM FEW041 SCT140 BKN230 12/02 A2977 RMK CU1AC4CI3 CU TR SLP085

Closest aviation forecast (TAF) to Cormier Airport

Closest forecast is Greater Moncton Roméo LeBlanc International Airport, 13.3 nm (24.5 km) WSW. Retrieved 2020/06/02 12:33 UTC (2 hours ago):

TAF CYQM 021130Z 0212/0312 29008KT P6SM SCT120 BKN200 FM021400 32010KT P6SM BKN050 BKN120 BECMG 0221/0223 27005KT FM030300 24005KT P6SM SCT050 FM031100 23010KT P6SM BKN030 BKN120 RMK NXT FCST BY 021800Z